sensor_id;sensor_type;location;lat;lon;timestamp;P1;durP1;ratioP1;P2;durP2;ratioP2
36585;SDS011;22591;48.314;11.562;2023-03-05T00:01:27;44.20;;;24.27;;
36585;SDS011;22591;48.314;11.562;2023-03-05T00:03:54;44.55;;;27.08;;
36585;SDS011;22591;48.314;11.562;2023-03-05T00:06:21;42.38;;;25.58;;
36585;SDS011;22591;48.314;11.562;2023-03-05T00:08:48;41.42;;;24.35;;
36585;SDS011;22591;48.314;11.562;2023-03-05T00:11:15;42.30;;;26.08;;
36585;SDS011;22591;48.314;11.562;2023-03-05T00:13:41;40.38;;;26.00;;
36585;SDS011;22591;48.314;11.562;2023-03-05T00:16:08;46.70;;;24.77;;
36585;SDS011;22591;48.314;11.562;2023-03-05T00:18:35;41.25;;;25.58;;
36585;SDS011;22591;48.314;11.562;2023-03-05T00:21:01;45.08;;;26.60;;
36585;SDS011;22591;48.314;11.562;2023-03-05T00:23:28;43.85;;;26.45;;
36585;SDS011;22591;48.314;11.562;2023-03-05T00:25:54;43.95;;;24.65;;
36585;SDS011;22591;48.314;11.562;2023-03-05T00:28:19;43.10;;;26.23;;
36585;SDS011;22591;48.314;11.562;2023-03-05T00:30:45;41.78;;;25.90;;
36585;SDS011;22591;48.314;11.562;2023-03-05T00:33:11;46.97;;;27.85;;
36585;SDS011;22591;48.314;11.562;2023-03-05T00:35:38;48.25;;;27.55;;
36585;SDS011;22591;48.314;11.562;2023-03-05T00:38:08;42.70;;;26.23;;
36585;SDS011;22591;48.314;11.562;2023-03-05T00:40:35;47.10;;;28.38;;
36585;SDS011;22591;48.314;11.562;2023-03-05T00:43:04;46.75;;;27.90;;
36585;SDS011;22591;48.314;11.562;2023-03-05T00:45:30;48.38;;;27.25;;
36585;SDS011;22591;48.314;11.562;2023-03-05T00:47:56;43.70;;;26.20;;
36585;SDS011;22591;48.314;11.562;2023-03-05T00:50:22;50.63;;;29.15;;
36585;SDS011;22591;48.314;11.562;2023-03-05T00:52:48;45.65;;;28.13;;
36585;SDS011;22591;48.314;11.562;2023-03-05T00:55:13;52.53;;;29.33;;
36585;SDS011;22591;48.314;11.562;2023-03-05T00:57:39;54.05;;;29.13;;
36585;SDS011;22591;48.314;11.562;2023-03-05T01:00:05;51.25;;;27.88;;
36585;SDS011;22591;48.314;11.562;2023-03-05T01:02:31;52.70;;;29.15;;
36585;SDS011;22591;48.314;11.562;2023-03-05T01:04:56;52.10;;;29.33;;
36585;SDS011;22591;48.314;11.562;2023-03-05T01:07:22;50.72;;;30.55;;
36585;SDS011;22591;48.314;11.562;2023-03-05T01:09:48;45.72;;;25.88;;
36585;SDS011;22591;48.314;11.562;2023-03-05T01:12:13;51.97;;;28.80;;
36585;SDS011;22591;48.314;11.562;2023-03-05T01:14:39;51.72;;;28.98;;
36585;SDS011;22591;48.314;11.562;2023-03-05T01:17:04;49.53;;;27.75;;
36585;SDS011;22591;48.314;11.562;2023-03-05T01:19:30;55.03;;;28.75;;
36585;SDS011;22591;48.314;11.562;2023-03-05T01:21:55;56.45;;;30.15;;
36585;SDS011;22591;48.314;11.562;2023-03-05T01:24:21;54.28;;;29.77;;
36585;SDS011;22591;48.314;11.562;2023-03-05T01:26:46;58.83;;;31.90;;
36585;SDS011;22591;48.314;11.562;2023-03-05T01:29:13;62.85;;;31.30;;
36585;SDS011;22591;48.314;11.562;2023-03-05T01:31:41;59.80;;;32.22;;
36585;SDS011;22591;48.314;11.562;2023-03-05T01:34:06;60.67;;;32.47;;
36585;SDS011;22591;48.314;11.562;2023-03-05T01:36:32;62.10;;;32.50;;
36585;SDS011;22591;48.314;11.562;2023-03-05T01:38:57;61.83;;;32.83;;
36585;SDS011;22591;48.314;11.562;2023-03-05T01:41:23;53.45;;;31.30;;
36585;SDS011;22591;48.314;11.562;2023-03-05T01:43:50;65.57;;;34.65;;
36585;SDS011;22591;48.314;11.562;2023-03-05T01:52:03;69.70;;;32.42;;
36585;SDS011;22591;48.314;11.562;2023-03-05T01:57:34;65.00;;;33.05;;
36585;SDS011;22591;48.314;11.562;2023-03-05T02:00:09;61.75;;;33.67;;
36585;SDS011;22591;48.314;11.562;2023-03-05T02:02:37;61.40;;;32.97;;
36585;SDS011;22591;48.314;11.562;2023-03-05T02:05:04;59.70;;;32.78;;
36585;SDS011;22591;48.314;11.562;2023-03-05T02:07:32;63.95;;;33.67;;
36585;SDS011;22591;48.314;11.562;2023-03-05T02:10:01;66.13;;;35.05;;
36585;SDS011;22591;48.314;11.562;2023-03-05T02:12:38;63.95;;;33.60;;
36585;SDS011;22591;48.314;11.562;2023-03-05T02:15:04;66.47;;;34.65;;
36585;SDS011;22591;48.314;11.562;2023-03-05T02:17:31;58.83;;;33.03;;
36585;SDS011;22591;48.314;11.562;2023-03-05T02:20:02;62.92;;;34.13;;
36585;SDS011;22591;48.314;11.562;2023-03-05T02:22:30;65.45;;;33.53;;
36585;SDS011;22591;48.314;11.562;2023-03-05T02:24:56;60.30;;;33.22;;
36585;SDS011;22591;48.314;11.562;2023-03-05T02:27:24;63.28;;;32.58;;
36585;SDS011;22591;48.314;11.562;2023-03-05T02:29:58;66.22;;;33.10;;
36585;SDS011;22591;48.314;11.562;2023-03-05T02:32:24;62.90;;;32.58;;
36585;SDS011;22591;48.314;11.562;2023-03-05T02:34:50;66.28;;;36.03;;
36585;SDS011;22591;48.314;11.562;2023-03-05T02:37:16;67.20;;;34.95;;
36585;SDS011;22591;48.314;11.562;2023-03-05T02:39:41;58.17;;;33.80;;
36585;SDS011;22591;48.314;11.562;2023-03-05T02:42:07;67.18;;;33.03;;
36585;SDS011;22591;48.314;11.562;2023-03-05T02:44:32;64.80;;;34.17;;
36585;SDS011;22591;48.314;11.562;2023-03-05T02:46:58;63.70;;;33.67;;
36585;SDS011;22591;48.314;11.562;2023-03-05T02:49:24;68.25;;;36.63;;
36585;SDS011;22591;48.314;11.562;2023-03-05T02:51:49;69.80;;;36.58;;
36585;SDS011;22591;48.314;11.562;2023-03-05T02:54:15;61.60;;;33.35;;
36585;SDS011;22591;48.314;11.562;2023-03-05T02:56:40;60.42;;;32.88;;
36585;SDS011;22591;48.314;11.562;2023-03-05T02:59:07;64.18;;;35.05;;
36585;SDS011;22591;48.314;11.562;2023-03-05T03:01:33;63.85;;;33.58;;
36585;SDS011;22591;48.314;11.562;2023-03-05T03:03:58;64.40;;;32.45;;
36585;SDS011;22591;48.314;11.562;2023-03-05T03:06:24;68.47;;;34.88;;
36585;SDS011;22591;48.314;11.562;2023-03-05T03:08:50;63.97;;;34.47;;
36585;SDS011;22591;48.314;11.562;2023-03-05T03:11:15;67.97;;;35.28;;
36585;SDS011;22591;48.314;11.562;2023-03-05T03:13:42;66.85;;;34.53;;
36585;SDS011;22591;48.314;11.562;2023-03-05T03:16:09;62.05;;;32.88;;
36585;SDS011;22591;48.314;11.562;2023-03-05T03:18:36;66.50;;;35.50;;
36585;SDS011;22591;48.314;11.562;2023-03-05T03:21:03;62.85;;;34.78;;
36585;SDS011;22591;48.314;11.562;2023-03-05T03:23:29;68.50;;;32.13;;
36585;SDS011;22591;48.314;11.562;2023-03-05T03:25:55;72.10;;;36.13;;
36585;SDS011;22591;48.314;11.562;2023-03-05T03:28:24;69.85;;;35.92;;
36585;SDS011;22591;48.314;11.562;2023-03-05T03:30:50;64.18;;;35.58;;
36585;SDS011;22591;48.314;11.562;2023-03-05T03:33:16;67.00;;;35.38;;
36585;SDS011;22591;48.314;11.562;2023-03-05T03:35:42;64.43;;;34.65;;
36585;SDS011;22591;48.314;11.562;2023-03-05T03:38:11;65.55;;;34.83;;
36585;SDS011;22591;48.314;11.562;2023-03-05T03:40:38;67.43;;;37.88;;
36585;SDS011;22591;48.314;11.562;2023-03-05T03:43:04;63.05;;;33.63;;
36585;SDS011;22591;48.314;11.562;2023-03-05T03:45:30;67.15;;;34.75;;
36585;SDS011;22591;48.314;11.562;2023-03-05T03:47:56;60.88;;;31.08;;
36585;SDS011;22591;48.314;11.562;2023-03-05T03:50:21;64.25;;;34.63;;
36585;SDS011;22591;48.314;11.562;2023-03-05T03:52:48;58.42;;;31.42;;
36585;SDS011;22591;48.314;11.562;2023-03-05T03:55:14;61.72;;;34.78;;
36585;SDS011;22591;48.314;11.562;2023-03-05T03:57:40;65.57;;;35.50;;
36585;SDS011;22591;48.314;11.562;2023-03-05T04:00:07;61.92;;;33.55;;
36585;SDS011;22591;48.314;11.562;2023-03-05T04:02:35;62.55;;;32.55;;
36585;SDS011;22591;48.314;11.562;2023-03-05T04:05:01;61.30;;;31.60;;
36585;SDS011;22591;48.314;11.562;2023-03-05T04:07:27;61.55;;;33.65;;
36585;SDS011;22591;48.314;11.562;2023-03-05T04:09:52;62.10;;;34.15;;
36585;SDS011;22591;48.314;11.562;2023-03-05T04:12:18;65.43;;;32.85;;
36585;SDS011;22591;48.314;11.562;2023-03-05T04:14:44;59.05;;;31.83;;
36585;SDS011;22591;48.314;11.562;2023-03-05T04:17:11;65.90;;;36.63;;
36585;SDS011;22591;48.314;11.562;2023-03-05T04:19:37;63.42;;;33.80;;
36585;SDS011;22591;48.314;11.562;2023-03-05T04:22:03;64.53;;;34.08;;
36585;SDS011;22591;48.314;11.562;2023-03-05T04:24:30;59.53;;;32.17;;
36585;SDS011;22591;48.314;11.562;2023-03-05T04:26:55;61.28;;;32.40;;
36585;SDS011;22591;48.314;11.562;2023-03-05T04:29:21;62.05;;;34.15;;
36585;SDS011;22591;48.314;11.562;2023-03-05T04:31:46;56.55;;;31.58;;
36585;SDS011;22591;48.314;11.562;2023-03-05T04:34:13;57.03;;;29.30;;
36585;SDS011;22591;48.314;11.562;2023-03-05T04:36:38;63.25;;;33.20;;
36585;SDS011;22591;48.314;11.562;2023-03-05T04:39:04;62.28;;;32.80;;
36585;SDS011;22591;48.314;11.562;2023-03-05T04:41:29;53.83;;;30.40;;
36585;SDS011;22591;48.314;11.562;2023-03-05T04:43:55;54.50;;;29.90;;
36585;SDS011;22591;48.314;11.562;2023-03-05T04:46:21;64.68;;;32.88;;
36585;SDS011;22591;48.314;11.562;2023-03-05T04:48:46;56.03;;;30.65;;
36585;SDS011;22591;48.314;11.562;2023-03-05T04:51:12;56.45;;;30.25;;
36585;SDS011;22591;48.314;11.562;2023-03-05T04:53:37;59.80;;;32.05;;
36585;SDS011;22591;48.314;11.562;2023-03-05T04:56:03;58.75;;;29.77;;
36585;SDS011;22591;48.314;11.562;2023-03-05T04:58:29;52.75;;;29.98;;
36585;SDS011;22591;48.314;11.562;2023-03-05T05:00:59;57.80;;;30.48;;
36585;SDS011;22591;48.314;11.562;2023-03-05T05:03:28;59.70;;;31.42;;
36585;SDS011;22591;48.314;11.562;2023-03-05T05:05:55;55.25;;;29.15;;
36585;SDS011;22591;48.314;11.562;2023-03-05T05:08:21;55.60;;;31.02;;
36585;SDS011;22591;48.314;11.562;2023-03-05T05:10:57;60.85;;;32.45;;
36585;SDS011;22591;48.314;11.562;2023-03-05T05:13:28;53.88;;;29.77;;
36585;SDS011;22591;48.314;11.562;2023-03-05T05:15:54;53.28;;;30.80;;
36585;SDS011;22591;48.314;11.562;2023-03-05T05:18:20;58.00;;;31.90;;
36585;SDS011;22591;48.314;11.562;2023-03-05T05:20:46;56.58;;;31.05;;
36585;SDS011;22591;48.314;11.562;2023-03-05T05:23:12;54.83;;;28.73;;
36585;SDS011;22591;48.314;11.562;2023-03-05T05:25:39;56.70;;;28.67;;
36585;SDS011;22591;48.314;11.562;2023-03-05T05:28:04;53.38;;;29.17;;
36585;SDS011;22591;48.314;11.562;2023-03-05T05:30:30;56.28;;;28.85;;
36585;SDS011;22591;48.314;11.562;2023-03-05T05:32:55;55.08;;;28.67;;
36585;SDS011;22591;48.314;11.562;2023-03-05T05:35:21;55.10;;;29.33;;
36585;SDS011;22591;48.314;11.562;2023-03-05T05:37:47;54.65;;;28.20;;
36585;SDS011;22591;48.314;11.562;2023-03-05T05:40:12;51.72;;;30.27;;
36585;SDS011;22591;48.314;11.562;2023-03-05T05:42:38;51.38;;;28.58;;
36585;SDS011;22591;48.314;11.562;2023-03-05T05:45:04;52.47;;;29.65;;
36585;SDS011;22591;48.314;11.562;2023-03-05T05:47:30;48.17;;;27.77;;
36585;SDS011;22591;48.314;11.562;2023-03-05T05:49:55;50.75;;;28.02;;
36585;SDS011;22591;48.314;11.562;2023-03-05T05:52:21;49.42;;;28.48;;
36585;SDS011;22591;48.314;11.562;2023-03-05T05:54:47;50.75;;;27.25;;
36585;SDS011;22591;48.314;11.562;2023-03-05T05:57:13;51.17;;;26.85;;
36585;SDS011;22591;48.314;11.562;2023-03-05T05:59:39;46.67;;;27.08;;
36585;SDS011;22591;48.314;11.562;2023-03-05T06:02:04;53.42;;;28.45;;
36585;SDS011;22591;48.314;11.562;2023-03-05T06:04:31;49.97;;;27.77;;
36585;SDS011;22591;48.314;11.562;2023-03-05T06:06:57;53.22;;;28.45;;
36585;SDS011;22591;48.314;11.562;2023-03-05T06:09:24;51.83;;;26.52;;
36585;SDS011;22591;48.314;11.562;2023-03-05T06:11:49;50.20;;;26.48;;
36585;SDS011;22591;48.314;11.562;2023-03-05T06:14:15;53.63;;;27.52;;
36585;SDS011;22591;48.314;11.562;2023-03-05T06:16:41;52.55;;;27.73;;
36585;SDS011;22591;48.314;11.562;2023-03-05T06:19:07;52.08;;;27.75;;
36585;SDS011;22591;48.314;11.562;2023-03-05T06:21:35;50.55;;;29.25;;
36585;SDS011;22591;48.314;11.562;2023-03-05T06:24:01;57.17;;;29.13;;
36585;SDS011;22591;48.314;11.562;2023-03-05T06:26:26;49.65;;;28.65;;
36585;SDS011;22591;48.314;11.562;2023-03-05T06:28:52;49.00;;;28.02;;
36585;SDS011;22591;48.314;11.562;2023-03-05T06:31:19;54.33;;;29.88;;
36585;SDS011;22591;48.314;11.562;2023-03-05T06:33:46;51.42;;;26.40;;
36585;SDS011;22591;48.314;11.562;2023-03-05T06:36:14;50.55;;;27.02;;
36585;SDS011;22591;48.314;11.562;2023-03-05T06:38:41;50.17;;;27.05;;
36585;SDS011;22591;48.314;11.562;2023-03-05T06:41:15;45.55;;;26.23;;
36585;SDS011;22591;48.314;11.562;2023-03-05T06:43:43;50.45;;;27.58;;
36585;SDS011;22591;48.314;11.562;2023-03-05T06:46:11;51.08;;;26.80;;
36585;SDS011;22591;48.314;11.562;2023-03-05T06:48:38;48.30;;;28.13;;
36585;SDS011;22591;48.314;11.562;2023-03-05T06:51:04;48.35;;;27.52;;
36585;SDS011;22591;48.314;11.562;2023-03-05T06:53:36;49.47;;;27.77;;
36585;SDS011;22591;48.314;11.562;2023-03-05T06:56:01;48.28;;;26.95;;
36585;SDS011;22591;48.314;11.562;2023-03-05T06:58:27;45.75;;;26.33;;
36585;SDS011;22591;48.314;11.562;2023-03-05T07:00:52;47.65;;;26.65;;
36585;SDS011;22591;48.314;11.562;2023-03-05T07:03:18;50.85;;;28.10;;
36585;SDS011;22591;48.314;11.562;2023-03-05T07:05:43;51.78;;;26.88;;
36585;SDS011;22591;48.314;11.562;2023-03-05T07:08:09;53.08;;;27.23;;
36585;SDS011;22591;48.314;11.562;2023-03-05T07:10:41;44.20;;;25.65;;
36585;SDS011;22591;48.314;11.562;2023-03-05T07:13:08;47.00;;;27.70;;
36585;SDS011;22591;48.314;11.562;2023-03-05T07:15:36;43.60;;;25.73;;
36585;SDS011;22591;48.314;11.562;2023-03-05T07:18:03;43.05;;;24.92;;
36585;SDS011;22591;48.314;11.562;2023-03-05T07:20:29;51.63;;;28.35;;
36585;SDS011;22591;48.314;11.562;2023-03-05T07:22:56;45.28;;;26.52;;
36585;SDS011;22591;48.314;11.562;2023-03-05T07:25:23;45.30;;;27.17;;
36585;SDS011;22591;48.314;11.562;2023-03-05T07:27:49;48.25;;;26.95;;
36585;SDS011;22591;48.314;11.562;2023-03-05T07:30:15;45.67;;;26.92;;
36585;SDS011;22591;48.314;11.562;2023-03-05T07:32:41;51.60;;;28.65;;
36585;SDS011;22591;48.314;11.562;2023-03-05T07:35:07;45.80;;;26.35;;
36585;SDS011;22591;48.314;11.562;2023-03-05T07:37:32;52.67;;;28.08;;
36585;SDS011;22591;48.314;11.562;2023-03-05T07:39:58;58.85;;;33.33;;
36585;SDS011;22591;48.314;11.562;2023-03-05T07:42:24;54.17;;;31.23;;
36585;SDS011;22591;48.314;11.562;2023-03-05T07:44:49;53.40;;;32.45;;
36585;SDS011;22591;48.314;11.562;2023-03-05T07:47:15;52.83;;;31.13;;
36585;SDS011;22591;48.314;11.562;2023-03-05T07:49:40;46.40;;;27.08;;
36585;SDS011;22591;48.314;11.562;2023-03-05T07:52:06;48.72;;;28.48;;
36585;SDS011;22591;48.314;11.562;2023-03-05T07:54:33;48.65;;;28.52;;
36585;SDS011;22591;48.314;11.562;2023-03-05T07:57:05;46.70;;;28.45;;
36585;SDS011;22591;48.314;11.562;2023-03-05T07:59:31;47.78;;;27.33;;
36585;SDS011;22591;48.314;11.562;2023-03-05T08:01:57;46.08;;;25.83;;
36585;SDS011;22591;48.314;11.562;2023-03-05T08:04:23;47.38;;;26.38;;
36585;SDS011;22591;48.314;11.562;2023-03-05T08:06:49;45.40;;;25.92;;
36585;SDS011;22591;48.314;11.562;2023-03-05T08:09:15;53.65;;;28.52;;
36585;SDS011;22591;48.314;11.562;2023-03-05T08:11:41;52.55;;;26.38;;
36585;SDS011;22591;48.314;11.562;2023-03-05T08:14:07;43.17;;;24.95;;
36585;SDS011;22591;48.314;11.562;2023-03-05T08:16:33;46.88;;;25.95;;
36585;SDS011;22591;48.314;11.562;2023-03-05T08:18:59;43.72;;;26.48;;
36585;SDS011;22591;48.314;11.562;2023-03-05T08:21:26;44.97;;;25.23;;
36585;SDS011;22591;48.314;11.562;2023-03-05T08:24:00;45.97;;;24.25;;
36585;SDS011;22591;48.314;11.562;2023-03-05T08:26:28;47.83;;;26.67;;
36585;SDS011;22591;48.314;11.562;2023-03-05T08:28:55;47.13;;;27.00;;
36585;SDS011;22591;48.314;11.562;2023-03-05T08:31:21;44.40;;;25.23;;
36585;SDS011;22591;48.314;11.562;2023-03-05T08:33:49;47.92;;;27.85;;
36585;SDS011;22591;48.314;11.562;2023-03-05T08:36:15;48.45;;;25.73;;
36585;SDS011;22591;48.314;11.562;2023-03-05T08:38:41;45.15;;;26.52;;
36585;SDS011;22591;48.314;11.562;2023-03-05T08:41:08;50.65;;;26.73;;
36585;SDS011;22591;48.314;11.562;2023-03-05T08:43:35;46.85;;;28.10;;
36585;SDS011;22591;48.314;11.562;2023-03-05T08:46:01;43.70;;;26.90;;
36585;SDS011;22591;48.314;11.562;2023-03-05T08:48:27;45.00;;;26.30;;
36585;SDS011;22591;48.314;11.562;2023-03-05T08:50:53;44.38;;;27.35;;
36585;SDS011;22591;48.314;11.562;2023-03-05T08:53:20;50.15;;;27.90;;
36585;SDS011;22591;48.314;11.562;2023-03-05T08:55:53;42.88;;;25.83;;
36585;SDS011;22591;48.314;11.562;2023-03-05T08:58:19;44.20;;;26.33;;
36585;SDS011;22591;48.314;11.562;2023-03-05T09:00:45;44.33;;;26.50;;
36585;SDS011;22591;48.314;11.562;2023-03-05T09:03:10;47.05;;;28.25;;
36585;SDS011;22591;48.314;11.562;2023-03-05T09:05:36;48.35;;;26.10;;
36585;SDS011;22591;48.314;11.562;2023-03-05T09:08:02;44.47;;;26.55;;
36585;SDS011;22591;48.314;11.562;2023-03-05T09:10:27;49.22;;;26.85;;
36585;SDS011;22591;48.314;11.562;2023-03-05T09:12:53;45.72;;;27.65;;
36585;SDS011;22591;48.314;11.562;2023-03-05T09:15:18;53.03;;;28.45;;
36585;SDS011;22591;48.314;11.562;2023-03-05T09:17:44;50.40;;;27.50;;
36585;SDS011;22591;48.314;11.562;2023-03-05T09:20:10;47.47;;;27.33;;
36585;SDS011;22591;48.314;11.562;2023-03-05T09:22:37;43.47;;;26.70;;
36585;SDS011;22591;48.314;11.562;2023-03-05T09:25:03;50.45;;;28.48;;
36585;SDS011;22591;48.314;11.562;2023-03-05T09:27:31;46.03;;;27.73;;
36585;SDS011;22591;48.314;11.562;2023-03-05T09:29:58;48.72;;;28.27;;
36585;SDS011;22591;48.314;11.562;2023-03-05T09:32:24;44.67;;;26.48;;
36585;SDS011;22591;48.314;11.562;2023-03-05T09:34:49;48.15;;;27.13;;
36585;SDS011;22591;48.314;11.562;2023-03-05T09:37:15;53.72;;;29.55;;
36585;SDS011;22591;48.314;11.562;2023-03-05T09:39:40;49.45;;;30.40;;
36585;SDS011;22591;48.314;11.562;2023-03-05T09:42:10;52.13;;;29.58;;
36585;SDS011;22591;48.314;11.562;2023-03-05T09:50:33;52.20;;;29.88;;
36585;SDS011;22591;48.314;11.562;2023-03-05T09:53:22;43.75;;;25.45;;
36585;SDS011;22591;48.314;11.562;2023-03-05T09:56:09;45.65;;;26.98;;
36585;SDS011;22591;48.314;11.562;2023-03-05T09:58:46;49.90;;;26.27;;
36585;SDS011;22591;48.314;11.562;2023-03-05T10:01:19;46.97;;;27.70;;
36585;SDS011;22591;48.314;11.562;2023-03-05T10:03:57;45.78;;;26.65;;
36585;SDS011;22591;48.314;11.562;2023-03-05T10:09:42;47.97;;;26.83;;
36585;SDS011;22591;48.314;11.562;2023-03-05T10:12:26;51.72;;;27.23;;
36585;SDS011;22591;48.314;11.562;2023-03-05T10:18:04;45.92;;;25.27;;
36585;SDS011;22591;48.314;11.562;2023-03-05T10:21:02;51.72;;;27.17;;
36585;SDS011;22591;48.314;11.562;2023-03-05T10:23:50;40.30;;;24.58;;
36585;SDS011;22591;48.314;11.562;2023-03-05T10:26:27;44.25;;;26.15;;
36585;SDS011;22591;48.314;11.562;2023-03-05T10:40:02;38.40;;;24.73;;
36585;SDS011;22591;48.314;11.562;2023-03-05T10:45:20;43.47;;;25.38;;
36585;SDS011;22591;48.314;11.562;2023-03-05T10:50:24;46.63;;;26.42;;
36585;SDS011;22591;48.314;11.562;2023-03-05T10:52:56;43.72;;;25.38;;
36585;SDS011;22591;48.314;11.562;2023-03-05T10:55:37;41.00;;;23.83;;
36585;SDS011;22591;48.314;11.562;2023-03-05T10:58:13;45.85;;;24.30;;
36585;SDS011;22591;48.314;11.562;2023-03-05T11:00:40;44.55;;;24.77;;
36585;SDS011;22591;48.314;11.562;2023-03-05T11:03:22;39.90;;;25.88;;
36585;SDS011;22591;48.314;11.562;2023-03-05T11:05:49;40.75;;;25.02;;
36585;SDS011;22591;48.314;11.562;2023-03-05T11:13:33;48.88;;;25.90;;
36585;SDS011;22591;48.314;11.562;2023-03-05T11:16:03;38.38;;;24.33;;
36585;SDS011;22591;48.314;11.562;2023-03-05T11:18:31;41.42;;;24.10;;
36585;SDS011;22591;48.314;11.562;2023-03-05T11:21:23;45.37;;;28.00;;
36585;SDS011;22591;48.314;11.562;2023-03-05T11:24:05;41.38;;;24.10;;
36585;SDS011;22591;48.314;11.562;2023-03-05T11:26:52;40.70;;;22.90;;
36585;SDS011;22591;48.314;11.562;2023-03-05T11:29:21;33.92;;;21.58;;
36585;SDS011;22591;48.314;11.562;2023-03-05T11:31:48;34.30;;;21.35;;
36585;SDS011;22591;48.314;11.562;2023-03-05T11:39:16;37.97;;;22.90;;
36585;SDS011;22591;48.314;11.562;2023-03-05T11:41:49;40.20;;;22.35;;
36585;SDS011;22591;48.314;11.562;2023-03-05T11:44:23;40.60;;;24.95;;
36585;SDS011;22591;48.314;11.562;2023-03-05T11:47:00;34.88;;;21.38;;
36585;SDS011;22591;48.314;11.562;2023-03-05T11:49:46;39.72;;;23.35;;
36585;SDS011;22591;48.314;11.562;2023-03-05T11:52:17;34.55;;;22.45;;
36585;SDS011;22591;48.314;11.562;2023-03-05T11:57:52;33.83;;;22.60;;
36585;SDS011;22591;48.314;11.562;2023-03-05T12:00:46;36.60;;;23.00;;
36585;SDS011;22591;48.314;11.562;2023-03-05T12:03:16;36.60;;;22.83;;
36585;SDS011;22591;48.314;11.562;2023-03-05T12:05:49;39.13;;;22.05;;
36585;SDS011;22591;48.314;11.562;2023-03-05T12:08:19;34.28;;;21.75;;
36585;SDS011;22591;48.314;11.562;2023-03-05T12:10:51;34.45;;;20.92;;
36585;SDS011;22591;48.314;11.562;2023-03-05T12:13:22;32.08;;;19.95;;
36585;SDS011;22591;48.314;11.562;2023-03-05T12:23:57;31.15;;;21.85;;
36585;SDS011;22591;48.314;11.562;2023-03-05T12:32:04;33.83;;;19.58;;
36585;SDS011;22591;48.314;11.562;2023-03-05T12:34:59;33.03;;;17.70;;
36585;SDS011;22591;48.314;11.562;2023-03-05T12:40:26;36.05;;;22.80;;
36585;SDS011;22591;48.314;11.562;2023-03-05T12:43:00;30.13;;;19.63;;
36585;SDS011;22591;48.314;11.562;2023-03-05T12:45:31;32.75;;;20.25;;
36585;SDS011;22591;48.314;11.562;2023-03-05T12:52:52;31.60;;;21.48;;
36585;SDS011;22591;48.314;11.562;2023-03-05T12:55:23;30.42;;;20.63;;
36585;SDS011;22591;48.314;11.562;2023-03-05T12:58:07;30.90;;;19.77;;
36585;SDS011;22591;48.314;11.562;2023-03-05T13:03:03;33.53;;;19.35;;
36585;SDS011;22591;48.314;11.562;2023-03-05T13:05:47;33.88;;;20.48;;
36585;SDS011;22591;48.314;11.562;2023-03-05T13:08:25;34.33;;;20.52;;
36585;SDS011;22591;48.314;11.562;2023-03-05T13:10:59;36.15;;;19.95;;
36585;SDS011;22591;48.314;11.562;2023-03-05T13:13:31;33.25;;;20.02;;
36585;SDS011;22591;48.314;11.562;2023-03-05T13:16:00;31.52;;;20.75;;
36585;SDS011;22591;48.314;11.562;2023-03-05T13:18:26;35.13;;;21.63;;
36585;SDS011;22591;48.314;11.562;2023-03-05T13:21:01;32.25;;;19.85;;
36585;SDS011;22591;48.314;11.562;2023-03-05T13:23:37;31.23;;;19.65;;
36585;SDS011;22591;48.314;11.562;2023-03-05T13:26:17;34.38;;;21.50;;
36585;SDS011;22591;48.314;11.562;2023-03-05T13:28:44;32.45;;;20.02;;
36585;SDS011;22591;48.314;11.562;2023-03-05T13:32:23;34.65;;;19.63;;
36585;SDS011;22591;48.314;11.562;2023-03-05T13:34:31;31.45;;;20.23;;
36585;SDS011;22591;48.314;11.562;2023-03-05T13:36:59;33.88;;;19.75;;
36585;SDS011;22591;48.314;11.562;2023-03-05T13:39:30;34.13;;;19.48;;
36585;SDS011;22591;48.314;11.562;2023-03-05T13:42:01;30.73;;;19.38;;
36585;SDS011;22591;48.314;11.562;2023-03-05T13:44:27;33.03;;;19.70;;
36585;SDS011;22591;48.314;11.562;2023-03-05T13:47:05;31.35;;;19.83;;
36585;SDS011;22591;48.314;11.562;2023-03-05T13:49:31;35.13;;;21.42;;
36585;SDS011;22591;48.314;11.562;2023-03-05T13:51:57;33.25;;;19.30;;
36585;SDS011;22591;48.314;11.562;2023-03-05T13:54:24;33.80;;;19.60;;
36585;SDS011;22591;48.314;11.562;2023-03-05T13:56:58;31.63;;;20.10;;
36585;SDS011;22591;48.314;11.562;2023-03-05T13:59:32;36.35;;;21.85;;
36585;SDS011;22591;48.314;11.562;2023-03-05T14:02:00;32.95;;;19.85;;
36585;SDS011;22591;48.314;11.562;2023-03-05T14:04:41;30.13;;;18.67;;
36585;SDS011;22591;48.314;11.562;2023-03-05T14:09:55;30.25;;;18.92;;
36585;SDS011;22591;48.314;11.562;2023-03-05T14:14:56;28.42;;;17.27;;
36585;SDS011;22591;48.314;11.562;2023-03-05T14:20:08;28.85;;;17.15;;
36585;SDS011;22591;48.314;11.562;2023-03-05T14:22:50;26.48;;;15.32;;
36585;SDS011;22591;48.314;11.562;2023-03-05T14:25:36;27.98;;;17.95;;
36585;SDS011;22591;48.314;11.562;2023-03-05T14:30:43;26.88;;;16.55;;
36585;SDS011;22591;48.314;11.562;2023-03-05T14:33:19;21.27;;;13.98;;
36585;SDS011;22591;48.314;11.562;2023-03-05T14:35:49;29.92;;;21.27;;
36585;SDS011;22591;48.314;11.562;2023-03-05T14:38:18;25.75;;;15.07;;
36585;SDS011;22591;48.314;11.562;2023-03-05T14:40:48;22.98;;;14.88;;
36585;SDS011;22591;48.314;11.562;2023-03-05T14:43:14;25.70;;;14.75;;
36585;SDS011;22591;48.314;11.562;2023-03-05T14:45:40;25.55;;;15.05;;
36585;SDS011;22591;48.314;11.562;2023-03-05T14:48:07;26.42;;;15.75;;
36585;SDS011;22591;48.314;11.562;2023-03-05T14:50:37;24.95;;;14.38;;
36585;SDS011;22591;48.314;11.562;2023-03-05T14:53:09;21.35;;;13.98;;
36585;SDS011;22591;48.314;11.562;2023-03-05T14:55:40;24.88;;;15.02;;
36585;SDS011;22591;48.314;11.562;2023-03-05T14:58:12;23.83;;;15.43;;
36585;SDS011;22591;48.314;11.562;2023-03-05T15:00:39;24.35;;;14.43;;
36585;SDS011;22591;48.314;11.562;2023-03-05T15:03:05;23.75;;;14.40;;
36585;SDS011;22591;48.314;11.562;2023-03-05T15:05:33;25.02;;;16.15;;
36585;SDS011;22591;48.314;11.562;2023-03-05T15:08:01;27.30;;;15.15;;
36585;SDS011;22591;48.314;11.562;2023-03-05T15:10:27;23.48;;;14.75;;
36585;SDS011;22591;48.314;11.562;2023-03-05T15:12:53;26.05;;;14.77;;
36585;SDS011;22591;48.314;11.562;2023-03-05T15:15:19;36.20;;;18.35;;
36585;SDS011;22591;48.314;11.562;2023-03-05T15:17:46;37.42;;;19.80;;
36585;SDS011;22591;48.314;11.562;2023-03-05T15:20:16;25.92;;;15.60;;
36585;SDS011;22591;48.314;11.562;2023-03-05T15:22:43;24.70;;;13.55;;
36585;SDS011;22591;48.314;11.562;2023-03-05T15:25:09;21.23;;;13.38;;
36585;SDS011;22591;48.314;11.562;2023-03-05T15:27:35;19.20;;;13.35;;
36585;SDS011;22591;48.314;11.562;2023-03-05T15:30:01;20.73;;;13.27;;
36585;SDS011;22591;48.314;11.562;2023-03-05T15:32:27;18.70;;;12.65;;
36585;SDS011;22591;48.314;11.562;2023-03-05T15:34:54;18.98;;;11.85;;
36585;SDS011;22591;48.314;11.562;2023-03-05T15:37:20;17.52;;;11.68;;
36585;SDS011;22591;48.314;11.562;2023-03-05T15:39:45;15.57;;;10.02;;
36585;SDS011;22591;48.314;11.562;2023-03-05T15:42:11;14.90;;;10.68;;